Time;durP1;ratioP1;P1;durP2;ratioP2;P2;SDS_P1;SDS_P2;PMS_P1;PMS_P2;Temp;Humidity;BMP_temperature;BMP_pressure;BME280_temperature;BME280_humidity;BME280_pressure;Samples;Min_cycle;Max_cycle;Signal;HPM_P1;HPM_P2
2024/04/12 00:01:03;;;;;;;2.50;1.30;;;;;;;10.71;60.75;100080.70;105309;1255;61231;-26
2024/04/12 00:03:36;;;;;;;6.90;2.00;;;;;;;11.26;58.65;100083.83;105433;1267;73401;-26
2024/04/12 00:06:17;;;;;;;6.50;2.20;;;;;;;11.25;58.19;100086.30;105448;1259;73111;-26
2024/04/12 00:08:46;;;;;;;5.40;1.80;;;;;;;11.07;58.46;100086.52;105185;1262;72687;-26
2024/04/12 00:11:21;;;;;;;5.90;2.30;;;;;;;10.85;58.95;100086.89;105309;1259;62048;-26
2024/04/12 00:13:52;;;;;;;4.50;1.80;;;;;;;10.66;59.50;100082.77;105455;1261;61157;-26
2024/04/12 00:16:25;;;;;;;5.30;2.00;;;;;;;10.48;59.97;100076.77;105446;1262;74692;-26
2024/04/12 00:19:12;;;;;;;;;;;;;;;10.30;60.46;100073.91;105658;1254;73257;-26
2024/04/12 00:21:46;;;;;;;1.80;1.50;;;;;;;10.08;61.17;100080.88;109390;1254;71488;-27
2024/04/12 00:24:15;;;;;;;3.20;1.80;;;;;;;9.87;61.83;100081.60;109425;1253;60068;-27
2024/04/12 00:26:43;;;;;;;7.70;1.60;;;;;;;9.62;62.82;100083.15;109208;1254;58965;-27
2024/04/12 00:29:25;;;;;;;3.60;1.70;;;;;;;10.14;62.01;100084.80;109427;1254;74671;-27
2024/04/12 00:31:54;;;;;;;4.00;1.40;;;;;;;10.76;59.61;100086.41;109547;1254;73549;-27
2024/04/12 00:34:28;;;;;;;9.40;2.70;;;;;;;10.81;59.28;100086.66;109248;1254;71864;-27
2024/04/12 00:37:07;;;;;;;4.70;2.50;;;;;;;10.64;59.81;100084.65;109408;1254;60169;-27
2024/04/12 00:39:38;;;;;;;4.00;1.90;;;;;;;10.50;59.91;100082.90;109318;1254;58953;-27
2024/04/12 00:42:09;;;;;;;6.20;2.70;;;;;;;10.33;60.27;100080.68;109209;1253;74636;-27
2024/04/12 00:44:41;;;;;;;5.80;2.40;;;;;;;10.13;61.02;100078.07;109430;1254;74551;-27
2024/04/12 00:47:20;;;;;;;10.90;3.00;;;;;;;9.98;61.34;100077.15;109300;1254;71426;-27
2024/04/12 00:49:50;;;;;;;6.00;2.70;;;;;;;9.86;62.29;100074.25;109550;1254;59163;-27
2024/04/12 00:52:22;;;;;;;3.80;2.00;;;;;;;9.70;63.00;100078.02;109203;1254;58968;-27
2024/04/12 00:54:56;;;;;;;4.50;2.30;;;;;;;10.24;62.10;100071.15;109198;1254;73505;-28
2024/04/12 00:57:24;;;;;;;6.40;3.10;;;;;;;10.85;59.95;100071.14;109251;1254;74358;-27
2024/04/12 00:59:51;;;;;;;9.30;3.40;;;;;;;10.92;59.30;100073.23;109552;1253;71445;-27
2024/04/12 01:02:21;;;;;;;12.30;3.70;;;;;;;10.80;59.20;100071.09;109528;1253;60086;-27
2024/04/12 01:04:49;;;;;;;6.50;3.30;;;;;;;10.60;59.63;100067.70;109299;1253;58840;-27
2024/04/12 01:07:18;;;;;;;8.60;3.40;;;;;;;10.37;60.35;100064.44;109249;1254;73802;-27
2024/04/12 01:09:45;;;;;;;10.50;4.40;;;;;;;10.18;60.66;100065.95;109425;1254;72660;-27
2024/04/12 01:12:18;;;;;;;10.70;3.70;;;;;;;9.98;61.16;100066.36;109252;1254;72676;-27
2024/04/12 01:14:46;;;;;;;6.80;3.50;;;;;;;9.78;61.73;100068.14;109319;1255;58970;-27
2024/04/12 01:17:13;;;;;;;6.40;3.40;;;;;;;9.59;61.97;100071.69;109371;1254;59177;-27
2024/04/12 01:19:41;;;;;;;7.60;3.80;;;;;;;9.43;62.74;100072.16;109417;1254;74722;-27
2024/04/12 01:22:08;;;;;;;5.50;2.70;;;;;;;9.20;63.98;100071.23;109364;1254;73222;-27
2024/04/12 01:24:39;;;;;;;8.10;3.60;;;;;;;9.71;63.31;100071.30;109264;1255;72735;-27
2024/04/12 01:27:06;;;;;;;9.60;3.50;;;;;;;10.33;60.72;100071.63;109266;1253;58925;-27
2024/04/12 01:29:34;;;;;;;8.70;4.20;;;;;;;10.34;59.73;100072.27;109472;1254;58837;-27
2024/04/12 01:32:04;;;;;;;10.20;3.60;;;;;;;10.14;60.39;100073.39;109366;1258;75168;-27
2024/04/12 01:34:31;;;;;;;9.20;3.90;;;;;;;9.93;61.01;100068.59;109355;1254;74470;-28
2024/04/12 01:37:00;;;;;;;6.60;4.20;;;;;;;9.78;61.40;100069.17;109391;1254;71468;-27
2024/04/12 01:39:34;;;;;;;8.70;4.30;;;;;;;9.63;61.96;100070.09;109362;1254;59007;-27
2024/04/12 01:42:04;;;;;;;7.70;4.60;;;;;;;9.49;62.68;100069.52;109424;1254;60079;-27
2024/04/12 01:44:32;;;;;;;8.00;4.10;;;;;;;9.40;62.84;100070.09;109329;1256;73401;-27
2024/04/12 01:47:03;;;;;;;10.70;4.50;;;;;;;9.28;63.22;100072.17;109357;1254;74286;-28
2024/04/12 01:49:34;;;;;;;7.20;3.00;;;;;;;9.14;63.83;100070.08;109475;1254;72756;-28
2024/04/12 01:52:03;;;;;;;9.90;3.90;;;;;;;9.75;62.96;100074.67;109414;1254;58892;-27
2024/04/12 01:54:32;;;;;;;12.60;3.90;;;;;;;10.34;60.37;100073.83;109454;1254;58953;-27
2024/04/12 01:57:03;;;;;;;5.10;3.20;;;;;;;10.37;59.79;100074.56;109433;1253;74701;-27
2024/04/12 01:59:31;;;;;;;8.90;4.10;;;;;;;10.11;60.33;100074.75;109469;1254;73228;-28
2024/04/12 02:02:00;;;;;;;9.00;3.60;;;;;;;9.85;60.96;100078.65;109311;1260;72380;-27
2024/04/12 02:04:34;;;;;;;11.90;4.60;;;;;;;9.62;61.72;100077.10;109381;1254;60032;-27
2024/04/12 02:07:01;;;;;;;6.80;4.00;;;;;;;9.38;62.27;100074.37;109382;1254;60069;-27
2024/04/12 02:09:29;;;;;;;8.40;3.90;;;;;;;9.19;63.05;100076.19;109132;1257;73815;-27
2024/04/12 02:11:57;;;;;;;6.40;4.30;;;;;;;9.04;63.58;100072.02;109121;1257;73701;-27
2024/04/12 02:14:24;;;;;;;4.40;3.00;;;;;;;8.92;63.95;100073.23;109235;1256;71529;-27
2024/04/12 02:16:53;;;;;;;5.90;3.20;;;;;;;8.76;64.70;100070.16;109104;1255;59560;-27
2024/04/12 02:19:21;;;;;;;6.70;3.80;;;;;;;9.33;63.18;100064.24;109371;1256;60016;-27
2024/04/12 02:21:50;;;;;;;8.30;3.70;;;;;;;9.92;60.68;100062.56;109158;1256;73984;-27
2024/04/12 02:24:18;;;;;;;13.60;3.90;;;;;;;10.00;60.10;100059.84;109210;1255;73068;-27
2024/04/12 02:26:48;;;;;;;10.50;4.10;;;;;;;9.87;60.01;100062.36;109255;1256;72756;-27
2024/04/12 02:29:16;;;;;;;5.60;3.50;;;;;;;9.69;60.60;100064.86;108972;1256;60167;-27
2024/04/12 02:31:43;;;;;;;9.90;4.30;;;;;;;9.50;60.88;100064.48;109376;1254;60241;-27
2024/04/12 02:34:13;;;;;;;5.10;3.80;;;;;;;9.29;61.51;100067.40;109131;1255;73047;-27
2024/04/12 02:36:40;;;;;;;6.60;3.40;;;;;;;9.09;62.21;100068.44;109212;1257;74324;-27
2024/04/12 02:39:08;;;;;;;6.60;3.30;;;;;;;8.89;62.86;100067.15;109390;1254;72686;-27
2024/04/12 02:41:37;;;;;;;7.30;3.30;;;;;;;8.75;63.54;100067.96;109365;1254;58930;-27
2024/04/12 02:44:06;;;;;;;3.60;2.80;;;;;;;8.59;64.12;100068.55;109217;1256;60133;-27
2024/04/12 02:46:34;;;;;;;3.80;2.70;;;;;;;9.15;63.10;100064.27;109062;1258;74692;-27
2024/04/12 02:49:06;;;;;;;9.70;3.70;;;;;;;9.73;60.71;100066.89;109389;1254;74298;-27
2024/04/12 02:51:34;;;;;;;6.90;4.30;;;;;;;9.78;60.24;100065.71;109207;1257;71454;-27
2024/04/12 02:54:01;;;;;;;6.70;3.50;;;;;;;9.59;60.41;100077.59;109381;1254;60143;-28
2024/04/12 02:56:31;;;;;;;7.10;3.60;;;;;;;9.33;61.19;100074.30;109179;1257;60060;-27
2024/04/12 02:58:59;;;;;;;9.10;3.80;;;;;;;9.13;61.65;100074.10;109260;1257;73390;-27
2024/04/12 03:01:26;;;;;;;5.90;3.50;;;;;;;8.93;62.14;100079.77;109204;1256;73272;-27
2024/04/12 03:03:58;;;;;;;7.10;3.70;;;;;;;8.74;62.62;100074.94;109207;1256;72652;-27
2024/04/12 03:06:31;;;;;;;9.60;3.80;;;;;;;8.55;63.18;100073.75;109081;1257;59340;-27
2024/04/12 03:09:02;;;;;;;5.80;3.50;;;;;;;8.36;63.65;100067.70;109187;1257;60122;-27
2024/04/12 03:11:34;;;;;;;5.70;2.50;;;;;;;8.09;64.79;100073.19;109148;1257;74746;-27
2024/04/12 03:14:09;;;;;;;8.40;3.10;;;;;;;8.65;63.79;100070.61;109095;1255;74488;-27
2024/04/12 03:16:42;;;;;;;10.30;3.50;;;;;;;9.28;61.39;100070.92;109170;1255;71435;-27
2024/04/12 03:19:14;;;;;;;8.40;3.40;;;;;;;9.27;60.90;100067.03;109079;1256;60262;-27
2024/04/12 03:21:43;;;;;;;9.90;4.30;;;;;;;9.09;61.30;100067.41;109382;1257;60035;-27
2024/04/12 03:24:11;;;;;;;6.50;3.20;;;;;;;8.92;62.03;100065.30;109247;1257;73819;-27
2024/04/12 03:26:43;;;;;;;4.90;3.10;;;;;;;8.74;62.71;100069.60;109144;1257;74499;-27
2024/04/12 03:29:11;;;;;;;10.40;3.50;;;;;;;8.61;63.27;100070.51;109124;1257;72741;-28
2024/04/12 03:31:39;;;;;;;4.70;3.60;;;;;;;8.49;63.69;100071.84;109320;1255;58951;-27
2024/04/12 03:34:13;;;;;;;7.90;3.40;;;;;;;8.38;64.11;100069.20;109355;1256;59060;-27
2024/04/12 03:36:53;;;;;;;8.20;2.10;;;;;;;8.23;64.44;100072.08;109356;1257;74369;-27
2024/04/12 03:41:56;;;;;;;5.60;2.70;;;;;;;9.47;61.08;100073.84;109171;1257;72615;-27
2024/04/12 03:44:30;;;;;;;6.30;3.40;;;;;;;9.60;60.15;100075.11;109192;1256;60112;-27
2024/04/12 03:47:08;;;;;;;5.10;3.20;;;;;;;9.50;60.36;100077.59;109396;1256;60005;-27
2024/04/12 03:49:40;;;;;;;5.00;3.10;;;;;;;9.38;60.88;100080.27;109033;1261;73239;-27
2024/04/12 03:52:12;;;;;;;4.30;2.80;;;;;;;9.24;61.12;100080.01;109114;1257;73270;-28
2024/04/12 03:54:42;;;;;;;7.30;3.30;;;;;;;9.15;61.58;100085.59;109283;1256;72712;-27
2024/04/12 03:57:09;;;;;;;8.50;3.80;;;;;;;9.09;61.67;100087.35;109308;1260;60066;-27
2024/04/12 03:59:38;;;;;;;9.50;2.70;;;;;;;9.05;61.97;100091.00;109363;1257;58984;-27
2024/04/12 04:02:08;;;;;;;6.40;2.90;;;;;;;9.02;62.49;100093.30;109360;1256;74745;-27
2024/04/12 04:04:37;;;;;;;3.90;2.30;;;;;;;8.91;62.99;100092.84;109163;1257;73234;-27
2024/04/12 04:07:05;;;;;;;7.40;2.90;;;;;;;9.66;61.16;100093.29;109095;1257;72919;-27
2024/04/12 04:09:32;;;;;;;5.70;3.10;;;;;;;10.34;58.80;100096.59;109031;1257;58956;-27
2024/04/12 04:12:00;;;;;;;11.00;3.40;;;;;;;10.45;58.17;100102.99;109227;1256;60115;-27
2024/04/12 04:14:27;;;;;;;9.80;3.50;;;;;;;10.45;58.11;100105.80;109121;1256;73723;-27
2024/04/12 04:16:56;;;;;;;5.30;2.90;;;;;;;10.37;58.28;100105.94;109092;1257;71811;-27
2024/04/12 04:19:30;;;;;;;7.90;3.20;;;;;;;10.29;58.60;100109.37;109048;1257;71461;-27
2024/04/12 04:22:01;;;;;;;5.30;3.10;;;;;;;10.05;59.35;100112.44;108960;1257;60095;-27
2024/04/12 04:24:30;;;;;;;5.20;3.10;;;;;;;9.93;59.93;100112.27;109005;1256;58859;-27
2024/04/12 04:26:57;;;;;;;8.60;4.20;;;;;;;10.11;59.71;100109.84;109108;1257;74710;-27
2024/04/12 04:29:24;;;;;;;5.40;2.80;;;;;;;10.21;59.50;100108.83;109054;1256;74441;-27
2024/04/12 04:31:52;;;;;;;8.00;3.10;;;;;;;10.28;59.29;100112.94;109087;1256;71443;-27
2024/04/12 04:34:20;;;;;;;8.40;2.90;;;;;;;10.38;59.14;100107.27;108931;1257;59241;-27
2024/04/12 04:36:55;;;;;;;5.80;2.00;;;;;;;10.42;59.51;100110.14;109102;1257;58959;-27
2024/04/12 04:39:23;;;;;;;7.90;2.50;;;;;;;11.17;57.63;100114.30;109100;1256;72960;-27
2024/04/12 04:41:51;;;;;;;5.10;3.00;;;;;;;11.85;55.54;100111.11;109078;1257;73095;-27
2024/04/12 04:44:18;;;;;;;5.80;2.90;;;;;;;12.15;54.84;100109.58;109036;1257;71865;-27
2024/04/12 04:46:46;;;;;;;7.80;3.60;;;;;;;12.26;54.28;100107.97;109052;1256;62270;-27
2024/04/12 04:49:13;;;;;;;7.60;3.30;;;;;;;12.27;54.13;100108.88;109121;1257;60048;-27
2024/04/12 04:51:42;;;;;;;7.10;3.30;;;;;;;12.12;54.32;100109.09;109105;1257;74695;-27
2024/04/12 04:54:13;;;;;;;5.30;2.80;;;;;;;11.95;54.93;100112.15;108962;1257;73195;-27
2024/04/12 04:56:41;;;;;;;5.80;3.00;;;;;;;11.93;54.78;100112.48;109100;1256;72787;-27
2024/04/12 04:59:15;;;;;;;6.00;2.70;;;;;;;11.95;54.89;100110.95;109045;1257;58908;-27
2024/04/12 05:01:45;;;;;;;6.30;2.90;;;;;;;12.14;54.47;100107.89;109019;1256;59198;-27
2024/04/12 05:04:15;;;;;;;8.60;3.40;;;;;;;12.25;54.44;100110.95;109106;1257;75011;-27
2024/04/12 05:06:44;;;;;;;5.10;2.70;;;;;;;12.08;54.73;100111.13;109106;1257;73052;-27
2024/04/12 05:09:12;;;;;;;6.70;3.00;;;;;;;12.23;54.99;100109.00;109085;1257;71430;-27
2024/04/12 05:11:40;;;;;;;10.90;3.50;;;;;;;12.25;55.23;100111.14;109055;1258;58921;-27
2024/04/12 05:14:48;;;;;;;6.20;2.90;;;;;;;12.36;54.56;100115.56;109080;1257;58854;-27
2024/04/12 05:17:09;;;;;;;5.60;3.10;;;;;;;12.39;54.72;100118.35;109113;1257;72938;-27
2024/04/12 05:19:40;;;;;;;6.10;3.30;;;;;;;12.56;53.91;100114.14;109002;1257;73216;-27
2024/04/12 05:22:13;;;;;;;6.00;3.00;;;;;;;12.66;54.24;100115.35;108934;1260;71775;-27
2024/04/12 05:24:41;;;;;;;4.50;2.60;;;;;;;12.75;54.29;100116.41;109007;1257;60073;-27
2024/04/12 05:27:11;;;;;;;8.70;3.30;;;;;;;12.77;53.00;100114.38;109067;1257;59048;-27
2024/04/12 05:29:40;;;;;;;10.80;3.00;;;;;;;12.93;53.18;100112.48;109064;1257;74744;-27
2024/04/12 05:32:12;;;;;;;5.90;2.70;;;;;;;12.88;53.57;100115.45;109109;1257;74873;-27
2024/04/12 05:34:40;;;;;;;3.50;2.20;;;;;;;12.91;52.74;100115.06;108984;1257;71558;-27
2024/04/12 05:37:08;;;;;;;8.80;3.50;;;;;;;13.03;51.84;100117.52;109045;1257;60170;-27
2024/04/12 05:39:36;;;;;;;4.10;2.00;;;;;;;13.23;50.89;100118.30;109128;1257;58848;-27
2024/04/12 05:42:06;;;;;;;9.90;3.20;;;;;;;13.34;51.00;100120.41;109066;1257;76851;-27
2024/04/12 05:44:35;;;;;;;6.40;2.50;;;;;;;13.20;50.92;100121.96;109100;1257;74529;-27
2024/04/12 05:47:07;;;;;;;6.70;2.50;;;;;;;13.26;51.72;100129.37;109063;1259;70544;-27
2024/04/12 05:49:34;;;;;;;5.10;2.60;;;;;;;13.30;50.59;100128.40;109070;1257;59031;-27
2024/04/12 05:52:03;;;;;;;4.90;2.20;;;;;;;13.67;50.25;100128.98;109015;1257;61027;-27
2024/04/12 05:54:39;;;;;;;6.90;2.20;;;;;;;13.95;49.63;100129.55;109017;1257;73431;-27
2024/04/12 05:57:07;;;;;;;5.50;2.50;;;;;;;13.85;49.25;100127.55;108992;1257;73270;-27
2024/04/12 05:59:35;;;;;;;7.40;2.90;;;;;;;14.04;50.11;100136.37;109068;1257;72772;-27
2024/04/12 06:02:05;;;;;;;6.80;2.60;;;;;;;14.18;49.07;100134.80;109027;1259;60189;-27
2024/04/12 06:04:36;;;;;;;8.00;2.50;;;;;;;14.06;48.74;100133.63;109114;1257;62174;-27
2024/04/12 06:07:11;;;;;;;5.60;2.10;;;;;;;13.99;48.36;100135.42;109048;1259;72888;-27
2024/04/12 06:09:39;;;;;;;4.80;2.30;;;;;;;14.03;48.30;100138.53;109108;1258;76633;-27
2024/04/12 06:12:07;;;;;;;8.40;2.60;;;;;;;14.24;48.78;100136.91;109037;1257;71519;-27
2024/04/12 06:14:38;;;;;;;3.60;2.30;;;;;;;14.24;48.05;100141.11;109004;1259;62237;-27
2024/04/12 06:17:08;;;;;;;7.70;3.10;;;;;;;14.51;48.35;100135.80;109045;1258;59037;-27
2024/04/12 06:19:37;;;;;;;7.00;2.80;;;;;;;14.50;48.26;100134.48;109015;1259;73744;-27
2024/04/12 06:22:12;;;;;;;6.00;1.90;;;;;;;14.72;48.01;100133.78;109113;1257;75025;-27
2024/04/12 06:24:42;;;;;;;9.00;2.90;;;;;;;14.94;47.33;100129.91;108963;1258;71464;-27
2024/04/12 06:27:10;;;;;;;12.90;2.60;;;;;;;14.89;47.55;100139.79;109003;1259;58971;-27
2024/04/12 06:29:38;;;;;;;6.20;2.30;;;;;;;15.01;47.70;100136.37;109085;1257;60988;-27
2024/04/12 06:32:07;;;;;;;2.30;1.50;;;;;;;15.18;47.37;100138.48;109086;1257;74765;-27
2024/04/12 06:34:37;;;;;;;7.60;2.20;;;;;;;15.13;46.78;100139.02;108980;1259;74505;-27
2024/04/12 06:37:07;;;;;;;9.90;2.90;;;;;;;15.09;46.54;100136.90;108912;1258;73382;-27
2024/04/12 06:39:34;;;;;;;6.00;2.30;;;;;;;15.21;46.16;100137.83;109052;1257;60126;-27
2024/04/12 06:42:05;;;;;;;3.90;1.60;;;;;;;15.45;47.40;100140.56;109004;1258;58996;-27
2024/04/12 06:44:33;;;;;;;3.30;1.80;;;;;;;15.66;46.43;100137.40;109083;1258;74998;-27
2024/04/12 06:47:05;;;;;;;4.20;1.70;;;;;;;15.51;45.93;100132.90;109028;1258;73369;-27
2024/04/12 06:49:37;;;;;;;4.50;1.80;;;;;;;15.57;45.65;100136.99;108921;1259;72727;-27
2024/04/12 06:52:11;;;;;;;5.80;1.40;;;;;;;15.69;44.81;100137.16;109068;1257;59236;-27
2024/04/12 06:54:42;;;;;;;5.30;1.90;;;;;;;15.95;45.21;100134.77;109078;1258;59072;-27
2024/04/12 06:57:17;;;;;;;3.50;1.90;;;;;;;15.97;42.93;100132.73;108952;1258;75102;-27
2024/04/12 06:59:53;;;;;;;4.00;1.80;;;;;;;16.07;44.21;100132.13;109009;1258;76737;-27
2024/04/12 07:02:24;;;;;;;10.50;1.60;;;;;;;15.91;43.55;100132.87;109042;1258;72844;-27
2024/04/12 07:04:53;;;;;;;7.60;2.00;;;;;;;15.87;42.48;100133.19;109029;1259;60177;-27
2024/04/12 07:07:23;;;;;;;5.10;2.30;;;;;;;16.15;42.73;100129.92;109025;1259;59019;-27
2024/04/12 07:10:09;;;;;;;4.60;1.90;;;;;;;16.04;42.65;100134.02;108973;1258;73449;-27
2024/04/12 07:12:43;;;;;;;11.00;1.80;;;;;;;15.77;42.92;100125.95;108951;1259;74104;-27
2024/04/12 07:15:12;;;;;;;8.10;2.40;;;;;;;15.82;42.64;100133.60;108999;1258;74873;-27
2024/04/12 07:17:47;;;;;;;4.70;1.90;;;;;;;15.98;42.79;100131.88;109003;1257;59429;-27
2024/04/12 07:20:27;;;;;;;5.80;2.20;;;;;;;16.23;43.20;100128.67;108946;1259;60356;-27
2024/04/12 07:22:58;;;;;;;3.90;1.50;;;;;;;16.45;42.64;100121.54;109025;1258;74809;-27
2024/04/12 07:25:28;;;;;;;5.40;1.40;;;;;;;16.32;41.48;100127.70;108946;1259;73184;-27
2024/04/12 07:28:00;;;;;;;3.90;1.40;;;;;;;16.24;41.49;100123.36;108897;1258;72801;-27
2024/04/12 07:30:30;;;;;;;3.10;1.40;;;;;;;16.33;40.95;100129.20;108951;1260;60168;-27
2024/04/12 07:33:05;;;;;;;9.30;1.40;;;;;;;16.55;40.60;100109.40;109014;1259;61734;-27
2024/04/12 07:35:36;;;;;;;10.20;1.30;;;;;;;16.64;40.86;100119.84;108959;1259;72778;-27
2024/04/12 07:38:08;;;;;;;6.00;1.30;;;;;;;16.37;40.40;100102.18;108914;1258;74556;-27
2024/04/12 07:40:39;;;;;;;5.70;1.30;;;;;;;16.35;40.66;100102.41;108956;1260;72824;-27
2024/04/12 07:43:12;;;;;;;6.90;1.60;;;;;;;16.51;40.66;100105.69;108981;1259;60024;-27
2024/04/12 07:45:47;;;;;;;5.70;2.00;;;;;;;16.57;41.07;100112.58;108966;1260;59299;-27
2024/04/12 07:48:23;;;;;;;3.90;1.60;;;;;;;16.51;41.12;100107.44;109020;1258;73739;-27
2024/04/12 07:51:00;;;;;;;5.00;1.50;;;;;;;16.33;41.48;100111.32;109030;1259;74436;-27
2024/04/12 07:53:34;;;;;;;4.10;1.70;;;;;;;16.44;41.70;100110.19;108948;1259;73876;-27
2024/04/12 07:56:09;;;;;;;4.40;1.70;;;;;;;16.76;41.00;100102.44;108927;1258;59003;-27
2024/04/12 07:58:40;;;;;;;;;;;;;;;16.81;40.65;100103.05;108959;1259;58994;-27
2024/04/12 08:01:19;;;;;;;7.90;2.40;;;;;;;16.72;40.54;100100.84;109009;1258;73461;-27
2024/04/12 08:03:56;;;;;;;3.10;1.50;;;;;;;16.97;41.26;100095.70;108932;1258;74630;-27
2024/04/12 08:14:08;;;;;;;4.00;1.90;;;;;;;17.56;39.69;100094.83;102585;1294;599312;-26
2024/04/12 08:16:37;;;;;;;8.60;1.90;;;;;;;17.73;39.89;100094.72;104820;1266;61175;-26
2024/04/12 08:19:12;;;;;;;4.50;2.30;;;;;;;17.99;39.02;100094.96;104892;1267;62237;-25
2024/04/12 08:21:41;;;;;;;8.30;2.10;;;;;;;17.91;38.12;100084.99;104797;1274;72066;-25
2024/04/12 08:24:11;;;;;;;4.40;2.10;;;;;;;17.80;39.04;100082.81;104846;1267;72606;-26
2024/04/12 08:26:47;;;;;;;5.20;1.90;;;;;;;17.97;39.29;100073.55;101065;1267;5171271;-26
2024/04/12 08:29:29;;;;;;;5.10;1.80;;;;;;;17.65;38.81;100070.98;104918;1264;62273;-27
2024/04/12 08:32:00;;;;;;;9.30;2.10;;;;;;;17.73;38.76;100069.16;104800;1264;61219;-27
2024/04/12 08:34:31;;;;;;;3.50;2.00;;;;;;;17.85;38.24;100065.19;104777;1264;72512;-26
2024/04/12 08:37:02;;;;;;;7.80;1.70;;;;;;;17.77;38.02;100061.77;104896;1263;74587;-27
2024/04/12 08:39:42;;;;;;;4.80;1.60;;;;;;;17.85;37.73;100059.05;105031;1270;72483;-27
2024/04/12 08:42:14;;;;;;;8.40;1.90;;;;;;;18.09;37.94;100052.17;104966;1263;61122;-27
2024/04/12 08:44:43;;;;;;;3.70;1.90;;;;;;;18.23;37.74;100049.25;104886;1263;61088;-27
2024/04/12 08:50:06;;;;;;;4.30;1.90;;;;;;;18.31;37.19;100041.45;105614;1257;76676;-28
2024/04/12 08:52:47;;;;;;;6.60;2.00;;;;;;;18.57;37.36;100039.79;105263;1257;72790;-27
2024/04/12 08:55:23;;;;;;;4.10;2.00;;;;;;;18.72;37.13;100045.20;105152;1262;61258;-27
2024/04/12 08:58:02;;;;;;;6.60;1.60;;;;;;;18.96;37.38;100045.76;105381;1262;61150;-27
2024/04/12 09:00:33;;;;;;;4.00;1.90;;;;;;;18.93;36.53;100035.23;105450;1260;72866;-27
2024/04/12 09:03:10;;;;;;;7.90;3.20;;;;;;;18.47;37.83;100024.05;105194;1257;73478;-26
2024/04/12 09:05:42;;;;;;;4.40;1.60;;;;;;;19.06;37.27;100043.38;105242;1259;73234;-27
2024/04/12 09:08:17;;;;;;;2.70;1.50;;;;;;;18.71;36.86;100039.63;105500;1263;61122;-28
2024/04/12 09:10:46;;;;;;;6.90;2.90;;;;;;;18.75;37.21;100036.12;105116;1264;61250;-27
2024/04/12 09:13:15;;;;;;;3.80;2.00;;;;;;;18.81;37.00;100034.92;105192;1263;76148;-27
2024/04/12 09:15:45;;;;;;;5.30;1.80;;;;;;;18.64;37.57;100027.31;105129;1266;74716;-27
2024/04/12 09:18:14;;;;;;;5.60;2.20;;;;;;;18.23;37.69;100020.42;105125;1263;72566;-27
2024/04/12 09:20:52;;;;;;;4.70;1.90;;;;;;;18.35;37.71;100027.55;105121;1260;61182;-27
2024/04/12 09:23:32;;;;;;;4.20;1.80;;;;;;;18.54;37.63;100023.16;105218;1257;61144;-28
2024/04/12 09:26:21;;;;;;;4.20;1.60;;;;;;;18.62;37.00;100021.89;105257;1262;71660;-27
2024/04/12 09:28:49;;;;;;;6.60;2.10;;;;;;;18.67;37.86;100020.02;105149;1257;73227;-27
2024/04/12 09:34:22;;;;;;;6.90;2.00;;;;;;;18.56;38.10;100016.48;105056;1260;61080;-27
2024/04/12 09:37:01;;;;;;;5.30;1.70;;;;;;;18.67;37.88;100009.27;105077;1264;62251;-27
2024/04/12 09:39:57;;;;;;;3.30;1.90;;;;;;;18.52;38.26;100014.27;105172;1263;74092;-27
2024/04/12 09:42:18;;;;;;;3.90;1.90;;;;;;;18.75;38.02;100017.60;105096;1257;74839;-27
2024/04/12 09:44:59;;;;;;;5.50;3.00;;;;;;;18.70;37.79;100013.34;105196;1262;74904;-27
2024/04/12 10:37:47;;;;;;;4.50;2.30;;;;;;;20.64;34.88;99950.23;105174;1263;77458;-27
2024/04/12 10:40:16;;;;;;;6.50;1.90;;;;;;;21.66;32.29;99944.06;105125;1260;75485;-26
2024/04/12 10:42:46;;;;;;;11.60;2.20;;;;;;;21.83;33.49;99935.59;105109;1260;62882;-28
2024/04/12 10:45:17;;;;;;;7.80;2.30;;;;;;;21.74;33.85;99933.27;105298;1262;62797;-27
2024/04/12 10:47:45;;;;;;;5.90;2.60;;;;;;;21.31;34.14;99927.00;105188;1257;76525;-27
2024/04/12 10:50:13;;;;;;;6.30;2.90;;;;;;;21.27;34.06;99928.84;105335;1257;77278;-27
2024/04/12 10:52:43;;;;;;;8.00;2.00;;;;;;;21.17;33.77;99925.02;105369;1261;73725;-27
2024/04/12 10:55:11;;;;;;;8.00;2.80;;;;;;;20.86;33.75;99922.41;105602;1260;63304;-27
2024/04/12 10:57:40;;;;;;;3.10;2.00;;;;;;;20.74;34.77;99922.13;105579;1262;62930;-27
2024/04/12 11:00:14;;;;;;;3.50;1.80;;;;;;;21.01;34.22;99914.10;105543;1262;75197;-27
2024/04/12 11:02:45;;;;;;;3.20;1.50;;;;;;;21.35;33.85;99912.11;105252;1260;76488;-27
2024/04/12 11:08:02;;;;;;;7.10;2.30;;;;;;;20.88;34.09;99904.92;105583;1260;61458;-27
2024/04/12 11:10:57;;;;;;;6.20;2.80;;;;;;;20.79;34.47;99910.54;105695;1257;61941;-27
2024/04/12 11:13:29;;;;;;;6.40;2.10;;;;;;;20.99;33.69;99902.17;105401;1261;75306;-27
2024/04/12 11:32:19;;;;;;;5.60;1.80;;;;;;;20.90;34.64;99884.75;105492;1259;74338;-27
2024/04/12 11:34:47;;;;;;;6.80;2.60;;;;;;;20.91;35.30;99879.18;105341;1260;61150;-27
2024/04/12 11:37:15;;;;;;;5.00;1.80;;;;;;;20.90;34.50;99876.70;105487;1255;62740;-27
2024/04/12 11:39:45;;;;;;;4.80;2.30;;;;;;;20.82;34.92;99868.91;105557;1259;76601;-27
2024/04/12 11:42:18;;;;;;;4.80;1.70;;;;;;;21.05;34.62;99872.02;105521;1254;77219;-27
2024/04/12 11:44:53;;;;;;;4.10;1.50;;;;;;;20.82;35.49;99864.35;105578;1258;75571;-27
2024/04/12 11:47:23;;;;;;;4.60;2.20;;;;;;;21.13;34.45;99866.90;105208;1255;62774;-27
2024/04/12 11:49:57;;;;;;;5.40;2.00;;;;;;;20.94;35.83;99860.49;105659;1259;62744;-27
2024/04/12 11:52:25;;;;;;;4.60;1.40;;;;;;;21.03;34.62;99866.21;105702;1254;76708;-27
2024/04/12 11:54:55;;;;;;;2.80;1.60;;;;;;;21.17;34.25;99866.16;105763;1259;76438;-27
2024/04/12 11:57:27;;;;;;;4.20;1.80;;;;;;;21.53;34.26;99863.27;105651;1254;74747;-28
2024/04/12 11:59:58;;;;;;;4.90;1.60;;;;;;;21.41;34.44;99857.70;105663;1254;62834;-27
2024/04/12 12:02:31;;;;;;;5.90;1.60;;;;;;;21.37;34.55;99848.48;105646;1254;61083;-27
2024/04/12 12:05:00;;;;;;;5.90;1.80;;;;;;;21.05;34.89;99837.38;105502;1254;74411;-27
2024/04/12 12:07:27;;;;;;;3.10;1.30;;;;;;;20.72;35.00;99847.28;105658;1254;75619;-27
2024/04/12 12:09:55;;;;;;;6.00;1.40;;;;;;;20.59;35.83;99838.83;105571;1254;73330;-27
2024/04/12 12:12:26;;;;;;;3.70;1.90;;;;;;;20.43;36.77;99837.92;105666;1255;63052;-27
2024/04/12 12:15:45;;;;;;;4.00;2.00;;;;;;;20.38;37.05;99835.27;102599;1293;600423;-25
2024/04/12 12:18:13;;;;;;;2.30;1.40;;;;;;;20.78;35.99;99822.77;104795;1268;61905;-26
2024/04/12 12:20:45;;;;;;;7.60;1.50;;;;;;;20.57;36.41;99827.27;104837;1267;61927;-26
2024/04/12 12:23:13;;;;;;;4.50;1.60;;;;;;;20.83;36.29;99820.73;104887;1267;75647;-26
2024/04/12 12:25:41;;;;;;;6.80;2.20;;;;;;;20.90;36.23;99822.67;104768;1272;76359;-27
2024/04/12 12:28:13;;;;;;;4.50;1.50;;;;;;;20.89;36.36;99823.99;103881;1267;4874650;-27
2024/04/12 12:30:41;;;;;;;10.20;2.20;;;;;;;21.06;36.25;99819.64;104851;1270;61187;-28
2024/04/12 12:33:10;;;;;;;3.90;1.50;;;;;;;20.82;36.56;99811.79;105042;1263;61144;-27
2024/04/12 12:35:39;;;;;;;5.70;1.80;;;;;;;20.60;36.94;99817.38;105026;1264;62888;-27
2024/04/12 12:38:11;;;;;;;2.40;1.60;;;;;;;20.56;36.84;99805.59;104987;1269;73433;-26
2024/04/12 12:40:39;;;;;;;3.90;1.60;;;;;;;20.60;37.05;99799.70;105060;1269;77197;-27
2024/04/12 12:43:10;;;;;;;1.70;1.10;;;;;;;20.76;37.15;99792.75;104999;1264;72674;-27
2024/04/12 12:45:38;;;;;;;5.80;1.50;;;;;;;21.19;36.67;99789.19;105157;1269;62839;-26
2024/04/12 12:48:16;;;;;;;3.10;1.30;;;;;;;21.22;36.81;99788.47;104775;1263;61042;-27
2024/04/12 12:50:45;;;;;;;2.90;1.90;;;;;;;21.45;37.19;99785.59;104748;1273;75275;-27
2024/04/12 12:53:15;;;;;;;5.30;1.60;;;;;;;21.14;36.70;99779.33;105075;1264;73927;-27
2024/04/12 12:55:42;;;;;;;4.10;1.30;;;;;;;21.09;36.75;99777.81;105126;1264;75386;-27
2024/04/12 12:58:11;;;;;;;4.60;2.00;;;;;;;21.30;37.19;99780.21;104751;1263;61251;-27
2024/04/12 13:00:43;;;;;;;5.50;2.70;;;;;;;21.08;37.17;99763.94;104917;1267;61803;-27
2024/04/12 13:03:12;;;;;;;5.30;2.40;;;;;;;21.12;36.60;99780.28;105088;1264;74434;-27